Time;durP1;ratioP1;P1;durP2;ratioP2;P2;SDS_P1;SDS_P2;PMS_P1;PMS_P2;Temp;Humidity;BMP_temperature;BMP_pressure;BME280_temperature;BME280_humidity;BME280_pressure;Samples;Min_cycle;Max_cycle;Signal;HPM_P1;HPM_P2
2022/03/01 00:01:16;;;;;;;7.03;0.70;;;20.50;99.90;;;;;;5093189;28;20461;-81
2022/03/01 00:03:44;;;;;;;9.25;0.85;;;20.50;99.90;;;;;;5093299;28;20028;-81
2022/03/01 00:06:11;;;;;;;5.35;0.77;;;20.50;99.90;;;;;;5093358;28;20078;-75
2022/03/01 00:08:38;;;;;;;1.73;0.60;;;20.40;99.90;;;;;;5093434;28;20059;-80
2022/03/01 00:11:06;;;;;;;3.83;0.82;;;20.30;99.90;;;;;;5093401;28;20070;-77
2022/03/01 00:13:33;;;;;;;3.05;0.80;;;20.30;99.90;;;;;;5093078;28;20469;-80
2022/03/01 00:16:00;;;;;;;4.78;0.80;;;20.30;99.90;;;;;;5092976;28;20043;-79
2022/03/01 00:18:28;;;;;;;3.88;0.65;;;20.30;99.90;;;;;;5093165;28;20024;-80
2022/03/01 00:20:55;;;;;;;7.72;1.42;;;20.30;99.90;;;;;;5093134;28;20062;-79
2022/03/01 00:23:22;;;;;;;8.63;2.08;;;20.30;99.90;;;;;;5093193;28;20040;-79
2022/03/01 00:25:50;;;;;;;8.43;1.52;;;20.30;99.90;;;;;;5093035;28;20017;-79
2022/03/01 00:28:17;;;;;;;5.97;1.35;;;20.40;99.90;;;;;;5093137;28;20020;-78
2022/03/01 00:30:44;;;;;;;10.40;2.03;;;20.50;99.90;;;;;;5094548;28;20027;-79
2022/03/01 00:33:15;;;;;;;8.75;1.15;;;20.60;99.90;;;;;;5096607;28;20028;-79
2022/03/01 00:35:42;;;;;;;12.38;2.25;;;20.60;99.90;;;;;;5096923;28;20018;-82
2022/03/01 00:38:10;;;;;;;8.88;1.35;;;20.70;99.90;;;;;;5096577;28;20020;-80
2022/03/01 00:40:37;;;;;;;9.05;1.40;;;20.80;99.90;;;;;;5096811;28;20472;-80
2022/03/01 00:43:04;;;;;;;10.35;2.03;;;20.90;99.90;;;;;;5096438;28;20494;-80
2022/03/01 00:45:32;;;;;;;5.43;1.23;;;21.00;99.90;;;;;;5096692;28;20018;-80
2022/03/01 00:47:59;;;;;;;7.25;1.70;;;21.10;99.90;;;;;;5096525;28;20047;-80
2022/03/01 00:50:27;;;;;;;5.63;1.08;;;21.20;99.90;;;;;;5096718;28;20059;-80
2022/03/01 00:52:55;;;;;;;6.40;1.58;;;21.20;99.90;;;;;;5096653;28;20404;-81
2022/03/01 00:55:23;;;;;;;15.95;2.05;;;21.20;99.90;;;;;;5096336;28;20028;-80
2022/03/01 00:57:50;;;;;;;10.32;1.00;;;21.30;99.90;;;;;;5096320;28;20035;-81
2022/03/01 01:00:18;;;;;;;10.13;1.83;;;21.30;99.90;;;;;;5096494;28;20465;-80
2022/03/01 01:02:48;;;;;;;6.32;1.10;;;21.30;99.90;;;;;;5096315;28;20127;-77
2022/03/01 01:05:16;;;;;;;6.32;1.00;;;21.30;99.90;;;;;;5096732;28;20461;-81
2022/03/01 01:07:44;;;;;;;9.20;0.90;;;21.30;99.90;;;;;;5096252;28;20027;-80
2022/03/01 01:10:12;;;;;;;7.47;1.27;;;21.30;99.90;;;;;;5096323;28;20545;-82
2022/03/01 01:12:41;;;;;;;4.55;1.10;;;21.20;99.90;;;;;;5096120;28;20024;-82
2022/03/01 01:15:10;;;;;;;4.70;1.20;;;21.20;99.90;;;;;;5096156;28;20107;-81
2022/03/01 01:17:38;;;;;;;3.50;1.10;;;21.10;99.90;;;;;;5095855;28;20012;-82
2022/03/01 01:20:08;;;;;;;3.42;0.63;;;21.00;99.90;;;;;;5096034;28;20020;-81
2022/03/01 01:22:42;;;;;;;2.47;0.90;;;20.90;99.90;;;;;;5095689;28;20036;-80
2022/03/01 01:25:14;;;;;;;2.95;0.55;;;20.80;99.90;;;;;;5096206;28;20025;-80
2022/03/01 01:27:47;;;;;;;4.15;0.98;;;20.80;99.90;;;;;;5094616;28;20024;-82
2022/03/01 01:30:17;;;;;;;1.55;0.40;;;20.70;99.90;;;;;;5095980;28;20027;-81
2022/03/01 01:32:48;;;;;;;4.07;0.77;;;20.60;99.90;;;;;;5095792;28;20024;-81
2022/03/01 01:35:17;;;;;;;2.33;0.60;;;20.50;99.90;;;;;;5095708;28;20369;-81
2022/03/01 01:37:45;;;;;;;6.40;0.90;;;20.40;99.90;;;;;;5095704;28;20370;-81
2022/03/01 01:40:20;;;;;;;9.38;1.10;;;20.40;99.90;;;;;;5095469;28;20073;-82
2022/03/01 01:42:48;;;;;;;7.72;1.05;;;20.40;99.90;;;;;;5094839;28;20396;-81
2022/03/01 01:45:16;;;;;;;6.18;1.23;;;20.40;99.90;;;;;;5094204;28;20028;-81
2022/03/01 01:47:43;;;;;;;5.90;1.38;;;20.40;99.90;;;;;;5095588;28;20066;-77
2022/03/01 01:50:11;;;;;;;5.85;1.60;;;20.50;99.90;;;;;;5095292;28;20127;-80
2022/03/01 01:52:39;;;;;;;6.75;1.50;;;20.60;99.90;;;;;;5095582;28;20054;-78
2022/03/01 01:55:08;;;;;;;6.65;1.45;;;20.70;99.90;;;;;;5095462;28;20024;-77
2022/03/01 01:57:35;;;;;;;5.00;1.67;;;20.80;99.90;;;;;;5094941;28;20066;-81
2022/03/01 02:00:06;;;;;;;7.75;2.00;;;20.90;99.90;;;;;;5095191;28;20020;-80
2022/03/01 02:02:33;;;;;;;8.90;1.65;;;20.90;99.90;;;;;;5095064;28;20047;-80
2022/03/01 02:05:04;;;;;;;3.85;0.98;;;21.00;99.90;;;;;;5093753;28;20035;-74
2022/03/01 02:07:32;;;;;;;9.27;2.15;;;21.00;99.90;;;;;;5095237;28;20016;-81
2022/03/01 02:10:00;;;;;;;14.10;2.15;;;21.00;99.90;;;;;;5093530;28;20422;-80
2022/03/01 02:12:28;;;;;;;16.25;2.05;;;21.00;99.90;;;;;;5093683;28;20052;-80
2022/03/01 02:14:56;;;;;;;12.70;1.98;;;21.00;99.90;;;;;;5094862;28;20028;-81
2022/03/01 02:17:27;;;;;;;15.07;2.40;;;21.00;99.90;;;;;;5094842;28;20074;-82
2022/03/01 02:19:55;;;;;;;8.35;1.58;;;21.00;99.90;;;;;;5095071;28;20024;-82
2022/03/01 02:22:22;;;;;;;8.73;1.73;;;21.00;99.90;;;;;;5094552;28;20036;-80
2022/03/01 02:24:50;;;;;;;7.85;1.77;;;21.10;99.90;;;;;;5094554;28;20103;-80
2022/03/01 02:27:20;;;;;;;6.72;1.65;;;21.00;99.90;;;;;;5094559;28;20057;-81
2022/03/01 02:29:48;;;;;;;10.80;1.92;;;21.00;99.90;;;;;;5094545;28;20020;-79
2022/03/01 02:32:16;;;;;;;10.35;1.67;;;21.00;99.90;;;;;;5094446;28;20467;-81
2022/03/01 02:34:47;;;;;;;9.40;1.42;;;21.00;99.90;;;;;;5094632;28;20020;-80
2022/03/01 02:37:15;;;;;;;5.75;1.25;;;21.00;99.90;;;;;;5090391;28;20500;-80
2022/03/01 02:39:43;;;;;;;7.95;1.23;;;20.90;99.90;;;;;;5094366;28;20026;-81
2022/03/01 02:42:11;;;;;;;7.68;1.90;;;20.80;99.90;;;;;;5094278;28;20024;-81
2022/03/01 02:44:38;;;;;;;10.52;2.10;;;20.80;99.90;;;;;;5094270;28;20081;-80
2022/03/01 02:47:06;;;;;;;9.18;1.15;;;20.80;99.90;;;;;;5094227;28;20468;-81
2022/03/01 02:49:34;;;;;;;5.10;0.88;;;20.70;99.90;;;;;;5094019;28;20052;-80
2022/03/01 02:52:02;;;;;;;4.63;1.13;;;20.60;99.90;;;;;;5092345;28;20024;-81
2022/03/01 02:54:29;;;;;;;7.07;1.85;;;20.60;99.90;;;;;;5094062;28;20430;-81
2022/03/01 02:57:01;;;;;;;3.92;0.95;;;20.60;99.90;;;;;;5093921;28;20024;-81
2022/03/01 02:59:29;;;;;;;4.10;0.63;;;20.60;99.90;;;;;;5094275;28;20106;-81
2022/03/01 03:01:58;;;;;;;4.28;0.75;;;20.60;99.90;;;;;;5094135;28;20111;-80
2022/03/01 03:04:25;;;;;;;2.28;0.73;;;20.70;99.90;;;;;;5094002;28;20069;-81
2022/03/01 03:06:54;;;;;;;2.30;0.70;;;20.60;99.90;;;;;;5093873;28;20028;-80
2022/03/01 03:09:21;;;;;;;4.38;0.80;;;20.70;99.90;;;;;;5093911;28;20480;-81
2022/03/01 03:11:50;;;;;;;8.18;1.25;;;20.70;99.90;;;;;;5093676;28;20067;-81
2022/03/01 03:14:18;;;;;;;6.88;1.55;;;20.70;99.90;;;;;;5093871;28;20081;-81
2022/03/01 03:16:46;;;;;;;9.18;2.28;;;20.70;99.90;;;;;;5093739;28;20054;-80
2022/03/01 03:19:17;;;;;;;5.95;1.23;;;20.70;99.90;;;;;;5093698;28;20028;-80
2022/03/01 03:21:46;;;;;;;11.75;2.47;;;20.70;99.90;;;;;;5093697;28;20489;-80
2022/03/01 03:24:13;;;;;;;7.15;1.23;;;20.70;99.90;;;;;;5094385;28;20036;-79
2022/03/01 03:26:41;;;;;;;7.82;2.38;;;20.60;99.90;;;;;;5093646;28;20028;-79
2022/03/01 03:29:10;;;;;;;8.63;1.48;;;20.50;99.90;;;;;;5093800;28;20074;-79
2022/03/01 03:31:40;;;;;;;9.27;1.60;;;20.50;99.90;;;;;;5093709;28;20020;-80
2022/03/01 03:34:09;;;;;;;7.45;1.40;;;20.50;99.90;;;;;;5093558;28;20020;-80
2022/03/01 03:36:39;;;;;;;7.60;1.58;;;20.50;99.90;;;;;;5093358;28;20384;-80
2022/03/01 03:39:09;;;;;;;9.50;1.60;;;20.60;99.90;;;;;;5093648;28;20028;-80
2022/03/01 03:41:37;;;;;;;6.05;1.20;;;20.60;99.90;;;;;;5093592;28;20020;-79
2022/03/01 03:44:05;;;;;;;7.75;1.92;;;20.80;99.90;;;;;;5093350;28;20032;-80
2022/03/01 03:46:36;;;;;;;18.27;1.00;;;20.90;99.90;;;;;;5093411;28;20020;-78
2022/03/01 03:49:05;;;;;;;14.45;1.92;;;21.00;99.90;;;;;;5093280;28;20048;-79
2022/03/01 03:51:32;;;;;;;15.50;2.03;;;21.10;99.90;;;;;;5093184;28;20023;-79
2022/03/01 03:54:00;;;;;;;11.90;2.20;;;21.10;99.90;;;;;;5093527;28;20047;-79
2022/03/01 03:56:28;;;;;;;12.43;2.38;;;21.10;99.90;;;;;;5093297;28;20089;-78
2022/03/01 03:58:57;;;;;;;8.63;1.48;;;21.20;99.90;;;;;;5093397;28;20025;-80
2022/03/01 04:01:25;;;;;;;19.75;3.03;;;21.20;99.90;;;;;;5093265;28;20024;-80
2022/03/01 04:03:53;;;;;;;5.13;1.27;;;21.20;99.90;;;;;;5093196;28;20024;-80
2022/03/01 04:06:21;;;;;;;4.90;1.00;;;21.10;99.90;;;;;;5097191;28;20513;-80
2022/03/01 04:08:48;;;;;;;5.95;1.38;;;21.10;99.90;;;;;;5097522;28;20028;-81
2022/03/01 04:11:16;;;;;;;2.90;1.02;;;21.10;99.90;;;;;;5095966;28;20024;-80
2022/03/01 04:13:44;;;;;;;2.53;0.47;;;21.10;99.90;;;;;;5097229;28;20040;-79
2022/03/01 04:16:11;;;;;;;2.55;1.10;;;21.00;99.90;;;;;;5097029;28;20043;-80
2022/03/01 04:18:39;;;;;;;3.70;0.63;;;20.90;99.90;;;;;;5096991;28;20031;-80
2022/03/01 04:21:07;;;;;;;5.40;0.93;;;20.80;99.90;;;;;;5097153;28;20026;-80
2022/03/01 04:23:35;;;;;;;3.72;0.70;;;20.80;99.90;;;;;;5097211;28;20547;-80
2022/03/01 04:26:04;;;;;;;9.50;1.58;;;20.80;99.90;;;;;;5096971;28;20028;-80
2022/03/01 04:28:32;;;;;;;4.90;1.02;;;20.80;99.90;;;;;;5097080;28;20024;-81
2022/03/01 04:31:00;;;;;;;7.65;1.20;;;20.80;99.90;;;;;;5097041;28;20020;-81
2022/03/01 04:33:30;;;;;;;4.78;1.40;;;20.80;99.90;;;;;;5097113;28;20531;-81
2022/03/01 04:36:02;;;;;;;6.80;2.00;;;20.80;99.90;;;;;;5097023;28;20061;-80
2022/03/01 04:38:30;;;;;;;3.60;0.70;;;20.70;99.90;;;;;;5096776;28;20477;-80
2022/03/01 04:40:58;;;;;;;7.07;1.77;;;20.60;99.90;;;;;;5096789;28;20058;-81
2022/03/01 04:43:25;;;;;;;4.70;1.30;;;20.50;99.90;;;;;;5096611;28;20480;-81
2022/03/01 04:45:56;;;;;;;6.07;1.45;;;20.50;99.90;;;;;;5096650;28;20035;-81
2022/03/01 04:48:24;;;;;;;8.82;1.85;;;20.40;99.90;;;;;;5096518;28;20051;-82
2022/03/01 04:50:52;;;;;;;3.95;1.20;;;20.40;99.90;;;;;;5096546;28;20051;-82
2022/03/01 04:53:20;;;;;;;10.55;1.40;;;20.30;99.90;;;;;;5096547;28;20030;-81
2022/03/01 04:55:48;;;;;;;7.28;1.92;;;20.30;99.90;;;;;;5096431;28;20016;-82
2022/03/01 04:58:15;;;;;;;12.27;2.47;;;20.30;99.90;;;;;;5096460;28;20119;-82
2022/03/01 05:00:43;;;;;;;7.00;1.08;;;20.30;99.90;;;;;;5095602;28;20028;-82
2022/03/01 05:03:11;;;;;;;11.60;2.17;;;20.30;99.90;;;;;;5096438;28;20032;-81
2022/03/01 05:05:41;;;;;;;7.57;1.92;;;20.30;99.90;;;;;;5096322;28;20103;-81
2022/03/01 05:08:09;;;;;;;7.75;1.40;;;20.30;99.90;;;;;;5096366;28;20044;-81
2022/03/01 05:10:40;;;;;;;10.32;1.60;;;20.40;99.90;;;;;;5096285;28;20024;-80
2022/03/01 05:13:08;;;;;;;11.75;1.40;;;20.40;99.90;;;;;;5096159;28;20052;-81
2022/03/01 05:15:35;;;;;;;7.68;1.40;;;20.40;99.90;;;;;;5096005;28;20082;-81
2022/03/01 05:18:03;;;;;;;13.10;2.40;;;20.40;99.90;;;;;;5096006;28;20487;-81
2022/03/01 05:20:31;;;;;;;7.20;1.27;;;20.40;99.90;;;;;;5096078;28;20016;-82
2022/03/01 05:22:58;;;;;;;13.13;1.60;;;20.40;99.90;;;;;;5096011;28;20115;-82
2022/03/01 05:25:26;;;;;;;10.88;2.88;;;20.40;99.90;;;;;;5095925;28;20383;-82
2022/03/01 05:27:54;;;;;;;9.13;1.48;;;20.40;99.90;;;;;;5096017;28;20027;-82
2022/03/01 05:30:23;;;;;;;10.70;1.90;;;20.30;99.90;;;;;;5095704;28;20103;-81
2022/03/01 05:32:52;;;;;;;11.60;2.38;;;20.30;99.90;;;;;;5095840;28;20024;-81
2022/03/01 05:35:28;;;;;;;5.55;1.10;;;20.30;99.90;;;;;;5094425;28;20073;-81
2022/03/01 05:38:09;;;;;;;6.25;1.33;;;20.30;99.90;;;;;;5095544;28;20034;-82
2022/03/01 05:40:38;;;;;;;7.15;1.35;;;20.30;99.90;;;;;;5095347;28;20469;-82
2022/03/01 05:43:08;;;;;;;3.40;1.10;;;20.40;99.90;;;;;;5094040;28;20036;-82
2022/03/01 05:45:37;;;;;;;11.77;1.60;;;20.40;99.90;;;;;;5095567;28;20031;-82
2022/03/01 05:48:05;;;;;;;8.43;1.25;;;20.50;99.90;;;;;;5095328;28;20111;-81
2022/03/01 05:50:32;;;;;;;10.68;1.92;;;20.50;99.90;;;;;;5095476;28;20131;-82
2022/03/01 05:53:03;;;;;;;15.52;2.50;;;20.50;99.90;;;;;;5094100;28;20522;-82
2022/03/01 05:55:31;;;;;;;6.22;1.70;;;20.50;99.90;;;;;;5094098;28;20031;-81
2022/03/01 05:58:01;;;;;;;13.38;3.28;;;20.60;99.90;;;;;;5095226;28;20027;-82
2022/03/01 06:00:29;;;;;;;10.25;2.35;;;20.60;99.90;;;;;;5095277;28;20111;-81
2022/03/01 06:02:58;;;;;;;10.50;2.28;;;20.60;99.90;;;;;;5095090;28;20035;-81
2022/03/01 06:05:27;;;;;;;10.02;1.70;;;20.60;99.90;;;;;;5095212;28;20019;-82
2022/03/01 06:07:56;;;;;;;9.00;1.23;;;20.60;99.90;;;;;;5094997;28;20031;-81
2022/03/01 06:10:24;;;;;;;10.98;2.17;;;20.60;99.90;;;;;;5094735;28;20020;-80
2022/03/01 06:12:52;;;;;;;11.98;1.67;;;20.60;99.90;;;;;;5095009;28;20020;-82
2022/03/01 06:15:20;;;;;;;13.95;2.08;;;20.60;99.90;;;;;;5094935;28;20099;-82
2022/03/01 06:17:48;;;;;;;16.48;2.33;;;20.70;99.90;;;;;;5094956;28;20063;-81
2022/03/01 06:20:17;;;;;;;14.95;1.77;;;20.70;99.90;;;;;;5094630;28;20488;-81
2022/03/01 06:22:45;;;;;;;14.60;2.17;;;20.70;99.90;;;;;;5093506;28;20388;-81
2022/03/01 06:25:13;;;;;;;7.53;1.55;;;20.70;99.90;;;;;;5095051;28;20491;-80
2022/03/01 06:27:42;;;;;;;10.23;2.05;;;20.70;99.90;;;;;;5094373;28;20538;-80
2022/03/01 06:30:11;;;;;;;15.50;2.53;;;20.70;99.90;;;;;;5094772;28;20027;-81
2022/03/01 06:32:41;;;;;;;15.25;2.00;;;20.70;99.90;;;;;;5094682;28;20020;-80
2022/03/01 06:35:09;;;;;;;10.52;1.80;;;20.70;99.90;;;;;;5092758;28;20028;-81
2022/03/01 06:37:37;;;;;;;11.40;1.92;;;20.70;99.90;;;;;;5094497;28;20023;-80
2022/03/01 06:40:08;;;;;;;10.55;2.08;;;20.60;99.90;;;;;;5094573;28;20020;-80
2022/03/01 06:42:36;;;;;;;6.88;1.80;;;20.50;99.90;;;;;;5094501;28;20020;-80
2022/03/01 06:45:06;;;;;;;13.20;2.88;;;20.50;99.90;;;;;;5094587;28;20058;-80
2022/03/01 06:47:34;;;;;;;9.60;1.75;;;20.50;99.90;;;;;;5094326;28;20024;-79
2022/03/01 06:50:03;;;;;;;10.48;1.42;;;20.40;99.90;;;;;;5094239;28;20488;-77
2022/03/01 06:52:32;;;;;;;15.27;2.33;;;20.30;99.90;;;;;;5094439;28;20376;-80
2022/03/01 06:55:00;;;;;;;13.40;2.38;;;20.30;99.90;;;;;;5094317;28;20024;-80
2022/03/01 06:57:27;;;;;;;9.68;2.10;;;20.30;99.90;;;;;;5094146;28;20085;-79
2022/03/01 06:59:55;;;;;;;9.07;2.25;;;20.20;99.90;;;;;;5076052;28;20469;-81
2022/03/01 07:02:26;;;;;;;11.82;2.42;;;20.10;99.90;;;;;;5093859;28;20024;-80
2022/03/01 07:04:54;;;;;;;12.63;1.92;;;20.10;99.90;;;;;;5092798;28;20381;-80
2022/03/01 07:07:23;;;;;;;12.38;2.58;;;20.10;99.90;;;;;;5092873;28;20545;-81
2022/03/01 07:09:51;;;;;;;11.60;1.80;;;20.10;99.90;;;;;;5094193;28;20032;-81
2022/03/01 07:12:18;;;;;;;13.30;2.50;;;20.10;99.90;;;;;;5094116;28;20020;-81
2022/03/01 07:14:46;;;;;;;8.20;1.33;;;20.00;99.90;;;;;;5094248;28;20093;-81
2022/03/01 07:17:16;;;;;;;8.27;1.70;;;20.00;99.90;;;;;;5093883;28;20016;-81
2022/03/01 07:19:44;;;;;;;12.32;1.73;;;20.00;99.90;;;;;;5094128;28;20020;-81
2022/03/01 07:22:11;;;;;;;19.13;2.08;;;19.90;99.90;;;;;;5093904;28;20520;-80
2022/03/01 07:24:39;;;;;;;10.98;2.15;;;19.90;99.90;;;;;;5093667;28;20032;-80
2022/03/01 07:27:07;;;;;;;10.15;1.83;;;19.90;99.90;;;;;;5093820;28;20024;-81
2022/03/01 07:29:36;;;;;;;12.45;2.95;;;19.90;99.90;;;;;;5093868;28;20048;-81
2022/03/01 07:32:05;;;;;;;7.15;1.23;;;19.90;99.90;;;;;;5093903;28;20025;-81
2022/03/01 07:34:34;;;;;;;7.63;1.80;;;19.90;99.90;;;;;;5093962;28;20044;-81
2022/03/01 07:37:02;;;;;;;7.63;1.35;;;19.90;99.90;;;;;;5093834;28;20123;-80
2022/03/01 07:39:30;;;;;;;11.68;2.28;;;19.90;99.90;;;;;;5093548;28;20042;-81
2022/03/01 07:41:58;;;;;;;18.70;2.45;;;19.90;99.90;;;;;;5093680;28;20103;-78
2022/03/01 07:44:26;;;;;;;12.27;1.77;;;19.90;99.90;;;;;;5093520;28;20067;-81
2022/03/01 07:46:53;;;;;;;12.95;2.00;;;19.90;99.90;;;;;;5093354;28;20017;-80
2022/03/01 07:49:21;;;;;;;8.40;1.67;;;19.90;99.90;;;;;;5093511;28;20063;-80
2022/03/01 07:51:49;;;;;;;11.15;1.83;;;19.90;99.90;;;;;;5093729;28;20024;-80
2022/03/01 07:54:17;;;;;;;15.00;1.45;;;19.90;99.90;;;;;;5093481;28;20027;-80
2022/03/01 07:56:45;;;;;;;8.13;1.75;;;19.90;99.90;;;;;;5093627;28;20028;-80
2022/03/01 07:59:12;;;;;;;7.60;1.75;;;19.90;99.90;;;;;;5093360;28;20031;-80
2022/03/01 08:01:40;;;;;;;10.65;2.67;;;19.80;99.90;;;;;;5093255;28;20020;-78
2022/03/01 08:04:08;;;;;;;13.43;1.65;;;19.80;99.90;;;;;;5093232;28;20031;-77
2022/03/01 08:06:35;;;;;;;11.63;2.08;;;19.80;99.90;;;;;;5093290;28;20016;-77
2022/03/01 08:09:03;;;;;;;7.72;1.77;;;19.80;99.90;;;;;;5093287;28;20379;-77
2022/03/01 08:11:31;;;;;;;8.77;1.70;;;19.80;99.90;;;;;;5093326;28;20024;-78
2022/03/01 08:13:58;;;;;;;15.70;1.90;;;19.80;99.90;;;;;;5092278;28;20024;-80
2022/03/01 08:16:27;;;;;;;7.00;2.10;;;19.80;99.90;;;;;;5093229;28;20027;-80
2022/03/01 08:18:54;;;;;;;12.30;2.90;;;19.80;99.90;;;;;;5093273;28;20025;-79
2022/03/01 08:21:22;;;;;;;9.93;1.60;;;19.80;99.90;;;;;;5075696;28;20062;-79
2022/03/01 08:23:50;;;;;;;18.13;2.70;;;19.80;99.90;;;;;;5080747;28;20032;-80
2022/03/01 08:26:18;;;;;;;16.85;2.22;;;19.90;99.90;;;;;;5080865;28;20017;-82
2022/03/01 08:28:46;;;;;;;7.20;1.75;;;19.90;99.90;;;;;;5071078;28;20423;-82
2022/03/01 08:31:14;;;;;;;10.43;2.90;;;19.80;99.90;;;;;;5071876;28;20021;-81
2022/03/01 08:33:41;;;;;;;13.38;1.55;;;19.80;99.90;;;;;;5071507;28;20047;-81
2022/03/01 08:36:11;;;;;;;12.15;2.80;;;19.80;99.90;;;;;;5071882;28;20028;-80
2022/03/01 08:38:40;;;;;;;12.55;2.45;;;19.80;99.90;;;;;;5071939;28;20362;-78
2022/03/01 08:41:08;;;;;;;9.45;2.28;;;19.90;99.90;;;;;;5071459;28;20020;-82
2022/03/01 08:43:35;;;;;;;8.35;2.33;;;19.80;99.90;;;;;;5070037;28;20032;-81
2022/03/01 08:46:03;;;;;;;11.93;1.80;;;19.90;99.90;;;;;;5071745;28;20027;-78
2022/03/01 08:48:31;;;;;;;11.93;1.70;;;19.90;99.90;;;;;;5071253;28;20060;-77
2022/03/01 08:50:58;;;;;;;5.07;0.90;;;19.90;99.90;;;;;;5072673;28;20025;-75
2022/03/01 08:53:26;;;;;;;12.45;2.00;;;19.90;99.90;;;;;;5074716;28;20067;-80
2022/03/01 08:55:54;;;;;;;8.50;1.40;;;19.90;99.90;;;;;;5075283;28;20025;-80
2022/03/01 08:58:24;;;;;;;5.32;1.10;;;19.80;99.90;;;;;;5075228;28;20025;-79
2022/03/01 09:00:52;;;;;;;10.55;1.40;;;19.80;99.90;;;;;;5073902;28;20024;-74
2022/03/01 09:03:20;;;;;;;9.25;1.27;;;19.80;99.90;;;;;;5074268;28;20033;-79
2022/03/01 09:05:47;;;;;;;8.35;1.45;;;19.80;99.90;;;;;;5077447;28;20166;-79
2022/03/01 09:08:15;;;;;;;8.63;0.90;;;19.70;99.90;;;;;;5075202;28;20017;-75
2022/03/01 09:10:43;;;;;;;8.52;1.20;;;19.70;99.90;;;;;;5074576;28;20087;-79
2022/03/01 09:13:11;;;;;;;3.13;0.80;;;19.60;99.90;;;;;;5077925;28;20392;-78
2022/03/01 09:15:39;;;;;;;9.55;2.03;;;19.60;99.90;;;;;;5074374;28;20020;-75
2022/03/01 09:18:07;;;;;;;8.68;1.52;;;19.60;99.90;;;;;;5074720;28;20138;-79
2022/03/01 09:20:35;;;;;;;7.10;1.80;;;19.50;99.90;;;;;;5074782;28;20036;-78
2022/03/01 09:23:03;;;;;;;7.28;1.63;;;19.50;99.90;;;;;;5074742;28;20029;-80
2022/03/01 09:25:31;;;;;;;4.05;1.25;;;19.50;99.90;;;;;;5076628;28;20051;-80
2022/03/01 09:27:59;;;;;;;16.35;2.65;;;19.50;99.90;;;;;;5074152;28;20550;-80
2022/03/01 09:30:27;;;;;;;5.35;1.15;;;19.50;99.90;;;;;;5074443;28;20591;-79
2022/03/01 09:32:55;;;;;;;8.00;1.75;;;19.50;99.90;;;;;;5075425;28;20376;-80
2022/03/01 09:35:22;;;;;;;10.10;1.73;;;19.50;99.90;;;;;;5074058;28;20020;-79
2022/03/01 09:37:50;;;;;;;8.05;1.70;;;19.50;99.90;;;;;;5073980;28;20599;-80
2022/03/01 09:40:18;;;;;;;7.85;2.05;;;19.50;99.90;;;;;;5071723;28;20036;-81
2022/03/01 09:42:46;;;;;;;10.43;1.73;;;19.50;99.90;;;;;;5073423;28;20024;-80
2022/03/01 09:45:15;;;;;;;8.50;1.38;;;19.50;99.90;;;;;;5073864;28;20025;-77
2022/03/01 09:47:42;;;;;;;9.18;1.63;;;19.50;99.90;;;;;;5072945;28;20044;-80
2022/03/01 09:50:11;;;;;;;12.77;1.58;;;19.40;99.90;;;;;;5073647;28;20040;-79
2022/03/01 09:52:40;;;;;;;8.50;1.42;;;19.40;99.90;;;;;;5073153;28;20024;-80
2022/03/01 09:55:11;;;;;;;6.45;1.75;;;19.50;99.90;;;;;;5073844;28;20017;-80
2022/03/01 09:57:39;;;;;;;10.30;2.75;;;19.50;99.90;;;;;;5073608;28;20537;-80
2022/03/01 10:00:08;;;;;;;10.82;1.60;;;19.40;99.90;;;;;;5073583;28;20103;-75
2022/03/01 10:02:39;;;;;;;10.70;1.50;;;19.40;99.90;;;;;;5071865;28;20024;-79
2022/03/01 10:05:08;;;;;;;9.32;1.63;;;19.50;99.90;;;;;;5073593;28;20024;-80
2022/03/01 10:07:38;;;;;;;9.05;2.40;;;19.40;99.90;;;;;;5073190;28;20042;-81
2022/03/01 10:10:16;;;;;;;7.85;1.95;;;19.40;99.90;;;;;;5073622;28;20016;-79
2022/03/01 10:12:55;;;;;;;6.40;1.92;;;19.50;99.90;;;;;;5073511;28;20496;-72
2022/03/01 10:15:32;;;;;;;6.28;1.55;;;19.40;99.90;;;;;;5073479;28;20094;-87
2022/03/01 10:18:21;;;;;;;9.77;1.98;;;19.40;99.90;;;;;;5073985;28;20062;-87
2022/03/01 10:24:38;;;;;;;9.27;1.48;;;19.40;99.90;;;;;;5039570;28;20040;-74
2022/03/01 10:27:06;;;;;;;6.78;1.35;;;19.50;99.90;;;;;;5033701;28;20029;-88
2022/03/01 10:29:34;;;;;;;9.98;2.10;;;19.50;99.90;;;;;;5072197;28;20025;-84
2022/03/01 10:32:21;;;;;;;10.18;1.92;;;19.40;99.90;;;;;;5073651;28;20031;-82
2022/03/01 10:35:06;;;;;;;5.53;1.50;;;19.50;99.90;;;;;;5078166;28;20110;-87
2022/03/01 10:37:39;;;;;;;9.35;1.05;;;19.40;99.90;;;;;;5089231;28;20069;-86
2022/03/01 10:40:15;;;;;;;9.23;1.15;;;19.40;99.90;;;;;;5093515;28;20016;-88
2022/03/01 10:42:43;;;;;;;11.68;2.03;;;19.40;99.90;;;;;;5091705;28;20020;-88
2022/03/01 10:45:13;;;;;;;13.00;1.35;;;19.40;99.90;;;;;;5093774;28;20024;-88
2022/03/01 10:47:41;;;;;;;6.38;1.27;;;19.40;99.90;;;;;;5091441;28;20020;-89
2022/03/01 10:50:13;;;;;;;7.15;1.13;;;19.40;99.90;;;;;;5093402;28;20148;-88
2022/03/01 10:52:41;;;;;;;9.30;2.35;;;19.40;99.90;;;;;;5090875;28;20027;-87
2022/03/01 10:55:23;;;;;;;9.02;1.65;;;19.30;99.90;;;;;;5092178;28;20376;-88
2022/03/01 10:58:12;;;;;;;12.73;1.55;;;19.30;99.90;;;;;;5093576;28;20021;-88
2022/03/01 11:00:40;;;;;;;11.10;1.65;;;19.30;99.90;;;;;;5091177;28;20012;-89
2022/03/01 11:03:09;;;;;;;5.80;1.50;;;19.30;99.90;;;;;;5093451;28;20465;-86
2022/03/01 11:05:39;;;;;;;4.47;1.08;;;19.40;99.90;;;;;;5095141;28;20365;-81
2022/03/01 11:08:10;;;;;;;6.20;1.23;;;19.40;99.90;;;;;;5093416;28;20020;-87
2022/03/01 11:10:43;;;;;;;3.80;0.98;;;19.40;99.90;;;;;;5093327;28;20016;-72
2022/03/01 11:13:12;;;;;;;2.42;0.50;;;19.40;99.90;;;;;;5092756;28;20028;-84
2022/03/01 11:16:30;;;;;;;3.67;0.68;;;19.40;99.90;;;;;;5091357;28;20488;-87
2022/03/01 11:19:23;;;;;;;2.50;0.50;;;19.40;99.90;;;;;;5067239;28;20039;-79
2022/03/01 11:21:53;;;;;;;6.03;1.10;;;19.30;99.90;;;;;;5065108;28;20024;-81
2022/03/01 11:24:22;;;;;;;1.75;0.50;;;19.20;99.90;;;;;;5092837;28;20469;-90
2022/03/01 11:26:50;;;;;;;5.15;0.80;;;19.10;99.90;;;;;;5092853;28;20434;-88
2022/03/01 11:29:19;;;;;;;2.78;0.68;;;19.00;99.90;;;;;;5092660;28;20065;-88
2022/03/01 11:32:01;;;;;;;5.10;0.80;;;18.90;99.90;;;;;;5090783;28;20027;-86
2022/03/01 11:34:30;;;;;;;4.55;0.60;;;18.90;99.90;;;;;;5091685;28;20487;-87
2022/03/01 11:36:59;;;;;;;6.38;1.05;;;18.90;99.90;;;;;;5089800;28;20553;-86
2022/03/01 11:39:30;;;;;;;5.90;1.08;;;18.90;99.90;;;;;;5091521;28;20023;-87
2022/03/01 11:42:17;;;;;;;3.15;0.93;;;18.90;99.90;;;;;;5092816;28;20036;-89
2022/03/01 11:44:51;;;;;;;4.50;0.80;;;18.90;99.90;;;;;;5092705;28;20047;-85
2022/03/01 11:47:29;;;;;;;13.05;1.55;;;18.90;99.90;;;;;;5092677;28;20027;-86
2022/03/01 11:49:57;;;;;;;3.00;0.77;;;18.80;99.90;;;;;;5089165;28;20052;-81
2022/03/01 11:52:27;;;;;;;13.38;2.95;;;18.90;99.90;;;;;;5092737;28;20028;-88
2022/03/01 11:54:57;;;;;;;9.00;1.50;;;18.80;99.90;;;;;;5092820;28;20491;-87
2022/03/01 11:57:29;;;;;;;12.55;1.60;;;18.80;99.90;;;;;;5092607;28;20433;-88
2022/03/01 11:59:59;;;;;;;5.05;1.05;;;18.80;99.90;;;;;;5092818;28;20016;-88
2022/03/01 12:02:28;;;;;;;8.95;1.10;;;18.80;99.90;;;;;;5092553;28;20059;-87
2022/03/01 12:04:56;;;;;;;9.55;1.80;;;18.80;99.90;;;;;;5092401;28;20059;-86
2022/03/01 12:07:27;;;;;;;10.40;1.67;;;18.80;99.90;;;;;;5092353;28;20082;-84
2022/03/01 12:09:59;;;;;;;10.70;1.20;;;18.80;99.90;;;;;;5092281;28;20024;-84
2022/03/01 12:12:45;;;;;;;8.93;1.45;;;18.90;99.90;;;;;;5092339;28;20020;-86
2022/03/01 12:15:13;;;;;;;;;;;18.90;99.90;;;;;;5092143;28;20024;-84
2022/03/01 12:17:47;;;;;;;10.15;1.95;;;19.00;99.90;;;;;;5090466;28;19937;-79
2022/03/01 12:20:17;;;;;;;10.48;2.03;;;19.00;99.90;;;;;;5092177;28;20039;-86
2022/03/01 12:22:59;;;;;;;12.30;2.58;;;19.10;99.90;;;;;;5092008;28;20107;-87
2022/03/01 12:25:31;;;;;;;13.48;2.25;;;19.10;99.90;;;;;;5091441;28;20024;-81
2022/03/01 12:28:00;;;;;;;10.70;1.95;;;19.10;99.90;;;;;;5096221;28;20020;-86
2022/03/01 12:30:28;;;;;;;9.13;1.58;;;19.20;99.90;;;;;;5096129;28;20017;-86
2022/03/01 12:32:58;;;;;;;9.68;1.50;;;19.20;99.90;;;;;;5095954;28;20038;-86
2022/03/01 12:35:27;;;;;;;11.73;2.53;;;19.20;99.90;;;;;;5095443;28;20027;-86
2022/03/01 12:38:05;;;;;;;11.65;2.05;;;19.20;99.90;;;;;;5095197;28;20012;-86
2022/03/01 12:40:34;;;;;;;8.95;1.65;;;19.20;99.90;;;;;;5095947;28;20035;-84
2022/03/01 12:43:07;;;;;;;14.15;2.35;;;19.20;99.90;;;;;;5095790;28;20029;-81
2022/03/01 12:45:46;;;;;;;9.07;2.22;;;19.20;99.90;;;;;;5095533;28;20024;-87
2022/03/01 12:48:16;;;;;;;9.07;2.08;;;19.20;99.90;;;;;;5095497;28;20024;-84
2022/03/01 12:50:48;;;;;;;12.82;1.90;;;19.20;99.90;;;;;;5095666;28;20476;-86
2022/03/01 12:53:16;;;;;;;8.10;1.90;;;19.20;99.90;;;;;;5095702;28;20052;-88
2022/03/01 12:55:52;;;;;;;9.68;1.77;;;19.30;99.90;;;;;;5094168;28;20024;-80
2022/03/01 12:58:27;;;;;;;15.77;2.80;;;19.30;99.90;;;;;;5095590;28;20020;-83